createdAt,value
2022-12-01T00:01:42.988Z,78960.34
2022-12-01T00:04:11.835Z,78963.81
2022-12-01T00:06:40.709Z,78951.28
2022-12-01T00:09:29.062Z,78965.75
2022-12-01T00:11:58.109Z,78965.81
2022-12-01T00:14:26.958Z,78930.75
2022-12-01T00:16:56.002Z,78961.22
2022-12-01T00:19:28.945Z,78965.88
2022-12-01T00:21:57.994Z,78954.00
2022-12-01T00:24:26.971Z,78938.13
2022-12-01T00:26:56.088Z,78967.91
2022-12-01T00:29:24.849Z,78921.81
2022-12-01T00:31:53.830Z,78968.75
2022-12-01T00:34:26.893Z,78938.38
2022-12-01T00:36:55.869Z,78915.91
2022-12-01T00:39:24.986Z,78979.97
2022-12-01T00:41:54.206Z,78977.34
2022-12-01T00:44:23.066Z,78945.69
2022-12-01T00:46:51.958Z,78941.75
2022-12-01T00:49:20.937Z,78975.47
2022-12-01T00:51:50.048Z,78950.97
2022-12-01T00:54:18.914Z,78956.91
2022-12-01T00:56:47.971Z,78967.44
2022-12-01T00:59:16.684Z,78975.28
2022-12-01T01:01:45.790Z,78969.34
2022-12-01T01:04:14.885Z,78895.44
2022-12-01T01:06:46.374Z,78946.25
2022-12-01T01:09:16.647Z,78981.91
2022-12-01T01:11:47.040Z,78948.28
2022-12-01T01:14:16.219Z,78993.88
2022-12-01T01:16:45.119Z,78995.81
2022-12-01T01:19:14.267Z,78956.16
2022-12-01T01:21:43.075Z,78966.69
2022-12-01T01:24:12.083Z,78964.72
2022-12-01T01:26:40.806Z,78987.22
2022-12-01T01:29:09.834Z,78992.47
2022-12-01T01:31:39.678Z,78989.84
2022-12-01T01:34:08.806Z,78936.38
2022-12-01T01:36:37.534Z,78954.16
2022-12-01T01:39:06.890Z,78993.78
2022-12-01T01:41:35.861Z,78976.03
2022-12-01T01:44:05.541Z,79001.13
2022-12-01T01:46:36.237Z,78995.88
2022-12-01T01:49:09.771Z,78967.47
2022-12-01T01:51:44.444Z,78987.94
2022-12-01T01:54:20.977Z,78999.81
2022-12-01T01:56:51.505Z,79013.00
2022-12-01T01:59:29.478Z,79010.19
2022-12-01T02:02:07.602Z,78994.03
2022-12-01T02:04:42.890Z,78991.03
2022-12-01T02:07:13.374Z,78998.03
2022-12-01T02:09:42.682Z,78977.97
2022-12-01T02:12:14.565Z,79012.56
2022-12-01T02:15:23.526Z,78985.41
2022-12-01T02:18:37.418Z,79011.78
2022-12-01T02:21:25.439Z,79004.94
2022-12-01T02:24:32.886Z,79007.09
2022-12-01T02:27:24.309Z,79012.97
2022-12-01T02:30:10.544Z,79000.31
2022-12-01T02:33:06.691Z,79016.44
2022-12-01T02:35:49.606Z,79001.63
2022-12-01T02:38:42.026Z,79016.13
2022-12-01T02:41:14.369Z,79015.81
2022-12-01T02:44:11.580Z,79011.13
2022-12-01T02:46:54.165Z,79017.69
2022-12-01T02:49:31.319Z,79019.31
2022-12-01T02:52:01.901Z,79011.47
2022-12-01T02:54:33.810Z,79008.56
2022-12-01T02:57:02.806Z,78992.38
2022-12-01T02:59:31.625Z,79006.81
2022-12-01T03:02:25.781Z,79024.75
2022-12-01T03:05:10.120Z,79024.84
2022-12-01T03:08:16.077Z,79034.38
2022-12-01T03:10:56.100Z,79036.50
2022-12-01T03:13:45.481Z,79029.72
2022-12-01T03:16:18.118Z,79026.34
2022-12-01T03:18:58.535Z,79037.56
2022-12-01T03:21:41.492Z,79035.44
2022-12-01T03:24:19.083Z,79021.44
2022-12-01T03:26:52.853Z,79013.72
2022-12-01T03:29:42.436Z,79040.94
2022-12-01T03:32:21.403Z,79034.38
2022-12-01T03:35:19.349Z,79029.84
2022-12-01T03:38:15.270Z,79043.44
2022-12-01T03:40:48.562Z,79030.41
2022-12-01T03:43:24.831Z,79033.66
2022-12-01T03:46:04.584Z,79058.94
2022-12-01T03:48:34.429Z,79049.38
2022-12-01T03:51:32.586Z,79061.78
2022-12-01T03:54:17.777Z,79049.88
2022-12-01T03:57:00.884Z,79046.34
2022-12-01T03:59:31.935Z,79067.69
2022-12-01T04:02:01.029Z,79039.19
2022-12-01T04:04:30.130Z,79051.28
2022-12-01T04:06:59.708Z,79063.16
2022-12-01T04:09:28.615Z,79067.31
2022-12-01T04:12:16.312Z,79063.53
2022-12-01T04:14:45.291Z,79032.09
2022-12-01T04:17:14.853Z,79059.38
2022-12-01T04:19:44.158Z,78999.47
2022-12-01T04:22:13.111Z,79052.00
2022-12-01T04:24:42.428Z,79062.72
2022-12-01T04:27:11.464Z,79061.44
2022-12-01T04:29:41.265Z,79049.38
2022-12-01T04:32:10.399Z,79056.28
2022-12-01T04:34:39.615Z,79044.75
2022-12-01T04:37:08.849Z,79054.50
2022-12-01T04:39:38.671Z,79049.66
2022-12-01T04:42:07.639Z,79069.56
2022-12-01T04:44:37.012Z,79058.63
2022-12-01T04:47:06.939Z,79058.31
2022-12-01T04:49:38.552Z,79056.88
2022-12-01T04:52:08.571Z,79052.47
2022-12-01T04:54:37.575Z,79062.56
2022-12-01T04:57:06.779Z,79064.66
2022-12-01T04:59:35.744Z,79069.38
2022-12-01T05:02:05.158Z,79057.38
2022-12-01T05:04:35.223Z,79066.44
2022-12-01T05:07:04.191Z,79063.13
2022-12-01T05:09:33.112Z,79073.56
2022-12-01T05:12:02.691Z,79057.66
2022-12-01T05:14:31.600Z,79073.19
2022-12-01T05:17:01.489Z,79063.75
2022-12-01T05:19:49.040Z,79054.03
2022-12-01T05:22:26.930Z,79041.38
2022-12-01T05:25:07.383Z,79052.50
2022-12-01T05:27:36.193Z,79039.19
2022-12-01T05:30:05.766Z,79062.84
2022-12-01T05:32:34.600Z,79047.22
2022-12-01T05:35:03.692Z,79064.91
2022-12-01T05:37:35.535Z,79048.34
2022-12-01T05:40:06.186Z,79062.19
2022-12-01T05:42:35.124Z,79059.75
2022-12-01T05:45:04.395Z,79036.06
2022-12-01T05:47:33.191Z,79049.63
2022-12-01T05:50:05.775Z,79053.63
2022-12-01T05:52:36.734Z,79056.13
2022-12-01T05:55:06.743Z,79058.41
2022-12-01T05:57:35.642Z,79035.59
2022-12-01T06:00:07.189Z,79062.34
2022-12-01T06:02:43.477Z,79063.28
2022-12-01T06:05:12.612Z,79053.41
2022-12-01T06:07:41.476Z,79039.19
2022-12-01T06:10:12.451Z,79023.47
2022-12-01T06:12:41.594Z,79045.56
2022-12-01T06:15:13.222Z,79034.81
2022-12-01T06:17:43.899Z,79009.56
2022-12-01T06:20:13.890Z,79028.75
2022-12-01T06:22:42.733Z,79016.41
2022-12-01T06:25:12.293Z,79019.78
2022-12-01T06:27:41.106Z,79018.94
2022-12-01T06:30:10.879Z,79015.13
2022-12-01T06:32:40.168Z,79019.81
2022-12-01T06:35:14.910Z,79007.22
2022-12-01T06:37:44.163Z,78991.50
2022-12-01T06:40:13.461Z,79003.75
2022-12-01T06:42:42.465Z,78975.13
2022-12-01T06:45:11.943Z,78967.56
2022-12-01T06:47:41.827Z,78993.72
2022-12-01T06:50:12.869Z,78990.16
2022-12-01T06:52:41.939Z,78979.41
2022-12-01T06:55:11.183Z,78980.38
2022-12-01T06:57:40.613Z,78958.63
2022-12-01T07:00:10.548Z,78957.41
2022-12-01T07:02:40.561Z,78954.72
2022-12-01T07:05:14.944Z,78946.50
2022-12-01T07:07:44.318Z,78966.06
2022-12-01T07:10:14.451Z,78957.44
2022-12-01T07:12:43.436Z,78950.03
2022-12-01T07:15:12.584Z,78944.59
2022-12-01T07:17:41.593Z,78942.13
2022-12-01T07:20:11.427Z,78926.75
2022-12-01T07:22:40.990Z,78942.09
2022-12-01T07:25:15.335Z,78936.75
2022-12-01T07:27:44.427Z,78924.63
2022-12-01T07:30:13.506Z,78928.41
2022-12-01T07:32:42.453Z,78934.44
2022-12-01T07:35:11.615Z,78901.81
2022-12-01T07:37:40.535Z,78886.56
2022-12-01T07:40:11.274Z,78886.75
2022-12-01T07:42:43.908Z,78897.09
2022-12-01T07:45:12.832Z,78888.78
2022-12-01T07:47:41.925Z,78894.25
2022-12-01T07:50:12.253Z,78895.00
2022-12-01T07:52:41.192Z,78903.53
2022-12-01T07:55:10.213Z,78901.69
2022-12-01T07:57:39.279Z,78896.88
2022-12-01T08:00:09.649Z,78878.94
2022-12-01T08:02:43.129Z,78881.41
2022-12-01T08:05:12.248Z,78879.31
2022-12-01T08:07:41.444Z,78884.66
2022-12-01T08:10:10.951Z,78879.13
2022-12-01T08:12:39.982Z,78868.38
2022-12-01T08:15:14.923Z,78874.03
2022-12-01T08:17:44.233Z,78853.28
2022-12-01T08:20:13.422Z,78877.78
2022-12-01T08:22:42.329Z,78869.91
2022-12-01T08:25:11.464Z,78846.69
2022-12-01T08:27:40.557Z,78858.34
2022-12-01T08:30:10.040Z,78866.50
2022-12-01T08:32:39.085Z,78854.78
2022-12-01T08:35:14.891Z,78852.06
2022-12-01T08:37:44.068Z,78847.53
2022-12-01T08:40:13.281Z,78849.34
2022-12-01T08:42:42.305Z,78849.75
2022-12-01T08:45:16.114Z,78853.25
2022-12-01T08:47:45.573Z,78844.75
2022-12-01T08:50:14.442Z,78840.13
2022-12-01T08:52:43.490Z,78849.94
2022-12-01T08:55:14.959Z,78853.09
2022-12-01T08:57:43.921Z,78849.00
2022-12-01T09:00:13.450Z,78845.00
2022-12-01T09:02:42.731Z,78829.75
2022-12-01T09:05:11.788Z,78828.28
2022-12-01T09:07:42.079Z,78841.00
2022-12-01T09:10:11.667Z,78844.50
2022-12-01T09:12:40.428Z,78838.34
2022-12-01T09:15:16.934Z,78815.94
2022-12-01T09:17:45.953Z,78833.59
2022-12-01T09:20:15.021Z,78798.44
2022-12-01T09:22:44.038Z,78834.75
2022-12-01T09:25:15.777Z,78810.44
2022-12-01T09:27:44.827Z,78802.94
2022-12-01T09:30:15.594Z,78792.13
2022-12-01T09:32:44.580Z,78826.47
2022-12-01T09:35:13.429Z,78815.66
2022-12-01T09:37:42.329Z,78805.13
2022-12-01T09:40:16.366Z,78777.03
2022-12-01T09:42:48.439Z,78801.97
2022-12-01T09:45:33.600Z,78811.66
2022-12-01T09:48:05.926Z,78797.94
2022-12-01T09:50:35.572Z,78800.78
2022-12-01T09:53:08.934Z,78792.59
2022-12-01T09:55:38.765Z,78788.78
2022-12-01T09:58:18.198Z,78797.63
2022-12-01T10:00:50.214Z,78796.13
2022-12-01T10:03:46.504Z,78803.88
2022-12-01T10:06:29.259Z,78779.44
2022-12-01T10:09:20.131Z,78805.41
2022-12-01T10:11:53.085Z,78787.38
2022-12-01T10:14:23.050Z,78774.44
2022-12-01T10:17:15.738Z,78796.75
2022-12-01T10:19:53.652Z,78797.03
2022-12-01T10:22:40.678Z,78787.94
2022-12-01T10:25:28.247Z,78790.47
2022-12-01T10:28:06.866Z,78785.69
2022-12-01T10:30:42.835Z,78779.53
2022-12-01T10:33:25.744Z,78791.41
2022-12-01T10:35:55.575Z,78776.56
2022-12-01T10:38:33.414Z,78787.63
2022-12-01T10:41:07.765Z,78775.56
2022-12-01T10:43:43.621Z,78788.13
2022-12-01T10:46:38.826Z,78787.38
2022-12-01T10:49:16.207Z,78787.56
2022-12-01T10:51:56.144Z,78782.78
2022-12-01T10:54:36.722Z,78776.31
2022-12-01T10:57:08.686Z,78777.13
2022-12-01T10:59:57.016Z,78748.34
2022-12-01T11:02:29.375Z,78760.47
2022-12-01T11:05:08.245Z,78755.72
2022-12-01T11:07:47.560Z,78719.88
2022-12-01T11:10:34.081Z,78766.78
2022-12-01T11:13:19.603Z,78759.34
2022-12-01T11:15:55.148Z,78753.22
2022-12-01T11:18:31.512Z,78762.19
2022-12-01T11:21:26.240Z,78766.34
2022-12-01T11:23:57.762Z,78738.69
2022-12-01T11:26:33.582Z,78773.03
2022-12-01T11:29:08.107Z,78770.25
2022-12-01T11:31:55.759Z,78761.78
2022-12-01T11:34:31.958Z,78740.00
2022-12-01T11:37:23.609Z,78763.28
2022-12-01T11:39:53.735Z,78755.50
2022-12-01T11:42:29.845Z,78770.38
2022-12-01T11:45:09.928Z,78781.03
2022-12-01T11:48:03.099Z,78780.63
2022-12-01T11:50:37.923Z,78777.00
2022-12-01T11:53:31.823Z,78779.00
2022-12-01T11:56:24.394Z,78784.28
2022-12-01T11:58:59.159Z,78760.88
2022-12-01T12:01:51.786Z,78771.38
2022-12-01T12:05:01.600Z,78783.47
2022-12-01T12:08:16.980Z,78779.63
2022-12-01T12:11:30.107Z,78766.53
2022-12-01T12:14:23.793Z,78775.78
2022-12-01T12:17:17.722Z,78773.91
2022-12-01T12:20:35.116Z,78770.00
2022-12-01T12:23:34.786Z,78762.16
2022-12-01T12:26:26.767Z,78762.25
2022-12-01T12:29:22.414Z,78774.25
2022-12-01T12:31:59.887Z,78780.16
2022-12-01T12:34:34.912Z,78786.09
2022-12-01T12:37:32.777Z,78782.16
2022-12-01T12:40:24.456Z,78773.78
2022-12-01T12:43:32.146Z,78793.03
2022-12-01T12:46:19.873Z,78765.50
2022-12-01T12:49:12.031Z,78793.28
2022-12-01T12:52:09.273Z,78776.19
2022-12-01T12:54:51.774Z,78788.78
2022-12-01T12:57:23.455Z,78795.34
2022-12-01T13:00:22.815Z,78777.56
2022-12-01T13:03:07.273Z,78792.25
2022-12-01T13:05:50.476Z,78780.63
2022-12-01T13:08:28.103Z,78763.00
2022-12-01T13:11:11.866Z,78804.63
2022-12-01T13:13:40.995Z,78803.41
2022-12-01T13:16:17.963Z,78797.44
2022-12-01T13:19:00.806Z,78798.88
2022-12-01T13:21:40.579Z,78807.59
2022-12-01T13:24:19.818Z,78784.63
2022-12-01T13:26:59.096Z,78801.06
2022-12-01T13:29:42.436Z,78803.19
2022-12-01T13:32:30.954Z,78807.97
2022-12-01T13:35:01.993Z,78813.44
2022-12-01T13:37:36.781Z,78763.50
2022-12-01T13:40:25.809Z,78797.09
2022-12-01T13:43:10.644Z,78819.38
2022-12-01T13:45:42.853Z,78822.88
2022-12-01T13:48:38.206Z,78822.81
2022-12-01T13:51:08.077Z,78813.00
2022-12-01T13:53:40.537Z,78828.88
2022-12-01T13:56:19.065Z,78828.84
2022-12-01T13:58:54.200Z,78828.19
2022-12-01T14:01:23.576Z,78818.31
2022-12-01T14:04:18.256Z,78823.09
2022-12-01T14:06:52.197Z,78823.75
2022-12-01T14:09:30.682Z,78816.47
2022-12-01T14:12:23.363Z,78815.97
2022-12-01T14:15:00.905Z,78802.75
2022-12-01T14:17:35.279Z,78821.88
2022-12-01T14:20:21.737Z,78826.44
2022-12-01T14:23:35.861Z,78827.75
2022-12-01T14:26:14.136Z,78827.13
2022-12-01T14:29:01.821Z,78834.44
2022-12-01T14:31:37.165Z,78837.78
2022-12-01T14:34:17.348Z,78830.56
2022-12-01T14:36:55.997Z,78838.44
2022-12-01T14:39:35.964Z,78837.16
2022-12-01T14:45:51.197Z,78841.09
2022-12-01T14:48:27.854Z,78849.72
2022-12-01T14:51:24.314Z,78825.25
2022-12-01T14:53:56.376Z,78851.03
2022-12-01T14:56:28.232Z,78847.63
2022-12-01T14:59:03.864Z,78851.56
2022-12-01T15:02:13.971Z,78852.78
2022-12-01T15:05:12.003Z,78860.47
2022-12-01T15:07:47.875Z,78846.44
2022-12-01T15:10:30.013Z,78844.50
2022-12-01T15:12:59.226Z,78834.06
2022-12-01T15:15:29.055Z,78844.47
2022-12-01T15:18:43.675Z,78845.41
2022-12-01T15:21:15.350Z,78848.78
2022-12-01T15:24:08.137Z,78846.84
2022-12-01T15:26:46.876Z,78841.53
2022-12-01T15:29:25.178Z,78865.56
2022-12-01T15:32:03.122Z,78857.75
2022-12-01T15:34:48.950Z,78868.94
2022-12-01T15:37:23.325Z,78839.91
2022-12-01T15:40:59.829Z,78821.38
2022-12-01T15:43:08.721Z,78849.59
2022-12-01T15:45:55.353Z,78864.03
2022-12-01T15:48:32.265Z,78861.00
2022-12-01T15:51:12.212Z,78858.69
2022-12-01T15:53:56.613Z,78857.50
2022-12-01T15:56:37.832Z,78835.84
2022-12-01T15:59:36.238Z,78853.06
2022-12-01T16:02:33.020Z,78851.16
2022-12-01T16:05:08.519Z,78868.44
2022-12-01T16:08:11.300Z,78860.44
2022-12-01T16:10:29.357Z,78820.50
2022-12-01T16:13:35.995Z,78872.56
2022-12-01T16:16:30.714Z,78867.56
2022-12-01T16:22:13.267Z,78862.41
2022-12-01T16:24:58.039Z,78860.72
2022-12-01T16:27:32.221Z,78863.84
2022-12-01T16:30:20.660Z,78857.75
2022-12-01T16:32:52.625Z,78861.88
2022-12-01T16:35:24.547Z,78865.94
2022-12-01T16:37:54.941Z,78842.31
2022-12-01T16:40:24.875Z,78860.75
2022-12-01T16:42:54.707Z,78832.63
2022-12-01T16:45:27.482Z,78863.06
2022-12-01T16:47:57.123Z,78863.78
2022-12-01T16:50:26.072Z,78861.78
2022-12-01T16:52:55.292Z,78865.66
2022-12-01T16:55:35.508Z,78854.31
2022-12-01T16:58:05.343Z,78864.38
2022-12-01T17:00:35.269Z,78846.69
2022-12-01T17:03:07.193Z,78845.63
2022-12-01T17:05:36.845Z,78859.59
2022-12-01T17:08:06.867Z,78871.53
2022-12-01T17:10:41.433Z,78866.34
2022-12-01T17:13:10.872Z,78855.97
2022-12-01T17:15:49.102Z,78846.66
2022-12-01T17:18:20.599Z,78871.78
2022-12-01T17:21:04.638Z,78841.09
2022-12-01T17:23:34.197Z,78845.06
2022-12-01T17:26:07.419Z,78859.31
2022-12-01T17:28:37.096Z,78873.13
2022-12-01T17:31:07.693Z,78870.50
2022-12-01T17:33:37.833Z,78869.97
2022-12-01T17:36:13.253Z,78862.69
2022-12-01T17:38:46.535Z,78849.00
2022-12-01T17:41:19.468Z,78825.97
2022-12-01T17:43:52.303Z,78855.50
2022-12-01T17:46:22.107Z,78864.00
2022-12-01T17:48:51.252Z,78802.22
2022-12-01T17:51:21.032Z,78859.38
2022-12-01T17:53:50.206Z,78869.38
2022-12-01T17:56:19.810Z,78839.03
2022-12-01T17:58:51.725Z,78868.13
2022-12-01T18:01:26.782Z,78858.91
2022-12-01T18:04:00.235Z,78856.50
2022-12-01T18:06:30.093Z,78850.69
2022-12-01T18:09:03.455Z,78857.22
2022-12-01T18:11:32.845Z,78851.38
2022-12-01T18:14:02.455Z,78840.19
2022-12-01T18:16:33.550Z,78846.88
2022-12-01T18:19:03.435Z,78829.69
2022-12-01T18:21:32.407Z,78840.22
2022-12-01T18:24:04.886Z,78848.94
2022-12-01T18:26:34.979Z,78840.22
2022-12-01T18:29:30.071Z,78833.56
2022-12-01T18:32:00.907Z,78816.53
2022-12-01T18:34:30.801Z,78817.22
2022-12-01T18:36:59.879Z,78840.84
2022-12-01T18:39:29.103Z,78827.00
2022-12-01T18:42:51.709Z,78833.59
2022-12-01T18:45:21.580Z,78820.56
2022-12-01T18:47:50.994Z,78822.44
2022-12-01T18:50:20.035Z,78819.13
2022-12-01T18:52:48.817Z,78806.50
2022-12-01T18:55:40.002Z,78830.31
2022-12-01T18:58:09.311Z,78827.78
2022-12-01T19:00:39.329Z,78828.88
2022-12-01T19:03:09.149Z,78804.66
2022-12-01T19:06:14.916Z,78823.72
2022-12-01T19:09:33.438Z,78827.09
2022-12-01T19:12:02.674Z,78817.13
2022-12-01T19:15:03.051Z,78815.16
2022-12-01T19:17:33.035Z,78790.97
2022-12-01T19:23:59.034Z,78800.66
2022-12-01T19:26:28.773Z,78802.66
2022-12-01T19:28:57.621Z,78795.44
2022-12-01T19:31:26.965Z,78814.59
2022-12-01T19:33:56.957Z,78818.56
2022-12-01T19:36:28.689Z,78797.50
2022-12-01T19:39:00.440Z,78801.38
2022-12-01T19:41:30.884Z,78791.38
2022-12-01T19:44:39.169Z,78802.56
2022-12-01T19:47:13.407Z,78792.13
2022-12-01T19:49:44.943Z,78789.28
2022-12-01T19:52:14.022Z,78799.13
2022-12-01T19:55:21.474Z,78805.00
2022-12-01T19:57:53.535Z,78805.13
2022-12-01T20:00:26.816Z,78799.00
2022-12-01T20:02:55.824Z,78782.47
2022-12-01T20:05:24.732Z,78787.06
2022-12-01T20:07:54.797Z,78791.69
2022-12-01T20:10:23.859Z,78785.06
2022-12-01T20:12:52.993Z,78789.06
2022-12-01T20:15:22.402Z,78807.06
2022-12-01T20:17:51.493Z,78796.56
2022-12-01T20:20:20.501Z,78788.63
2022-12-01T20:22:49.607Z,78801.19
2022-12-01T20:25:46.569Z,78801.78
2022-12-01T20:28:24.941Z,78780.75
2022-12-01T20:30:55.219Z,78806.38
2022-12-01T20:33:24.846Z,78793.25
2022-12-01T20:35:54.775Z,78793.03
2022-12-01T20:38:27.440Z,78788.34
2022-12-01T20:40:57.443Z,78788.41
2022-12-01T20:43:26.399Z,78778.59
2022-12-01T20:45:55.630Z,78776.66
2022-12-01T20:48:24.537Z,78768.13
2022-12-01T20:50:53.681Z,78793.22
2022-12-01T20:53:23.313Z,78791.28
2022-12-01T20:55:52.933Z,78782.16
2022-12-01T20:58:21.707Z,78773.81
2022-12-01T21:00:50.923Z,78781.78
2022-12-01T21:03:19.862Z,78790.25
2022-12-01T21:05:49.272Z,78782.38
2022-12-01T21:08:37.011Z,78796.97
2022-12-01T21:11:09.342Z,78788.88
2022-12-01T21:14:08.906Z,78784.19
2022-12-01T21:16:56.283Z,78787.50
2022-12-01T21:19:49.047Z,78782.28
2022-12-01T21:22:18.306Z,78767.28
2022-12-01T21:24:52.292Z,78757.41
2022-12-01T21:27:21.544Z,78783.47
2022-12-01T21:29:51.250Z,78782.75
2022-12-01T21:32:27.510Z,78771.66
2022-12-01T21:35:04.456Z,78769.00
2022-12-01T21:37:33.736Z,78772.16
2022-12-01T21:40:06.093Z,78767.00
2022-12-01T21:42:38.381Z,78771.06
2022-12-01T21:45:35.799Z,78751.34
2022-12-01T21:48:36.243Z,78773.16
2022-12-01T21:51:20.473Z,78771.38
2022-12-01T21:53:50.365Z,78790.31
2022-12-01T21:56:32.780Z,78792.75
2022-12-01T21:59:20.732Z,78769.06
2022-12-01T22:01:55.177Z,78779.97
2022-12-01T22:04:33.037Z,78768.81
2022-12-01T22:07:02.197Z,78758.38
2022-12-01T22:09:34.503Z,78766.94
2022-12-01T22:12:30.313Z,78778.06
2022-12-01T22:15:03.343Z,78770.78
2022-12-01T22:17:32.507Z,78781.09
2022-12-01T22:20:22.488Z,78753.56
2022-12-01T22:22:51.722Z,78772.69
2022-12-01T22:25:30.508Z,78772.00
2022-12-01T22:28:01.096Z,78776.50
2022-12-01T22:30:30.446Z,78743.50
2022-12-01T22:33:07.203Z,78781.88
2022-12-01T22:35:46.559Z,78767.84
2022-12-01T22:38:32.440Z,78775.94
2022-12-01T22:41:09.556Z,78771.91
2022-12-01T22:43:53.025Z,78771.84
2022-12-01T22:46:28.368Z,78779.31
2022-12-01T22:49:21.327Z,78766.03
2022-12-01T22:51:52.100Z,78773.44
2022-12-01T22:54:33.225Z,78777.41
2022-12-01T22:57:32.009Z,78755.72
2022-12-01T23:00:19.411Z,78757.16
2022-12-01T23:02:54.172Z,78747.28
2022-12-01T23:05:26.685Z,78736.84
2022-12-01T23:07:57.285Z,78767.84
2022-12-01T23:10:32.379Z,78772.47
2022-12-01T23:13:10.159Z,78767.84
2022-12-01T23:15:42.017Z,78763.28
2022-12-01T23:18:18.879Z,78766.69
2022-12-01T23:20:53.417Z,78728.56
2022-12-01T23:23:27.850Z,78743.16
2022-12-01T23:25:57.773Z,78758.97
2022-12-01T23:28:26.753Z,78754.34
2022-12-01T23:30:58.334Z,78758.78
2022-12-01T23:33:30.773Z,78740.31
2022-12-01T23:36:08.316Z,78750.16
2022-12-01T23:38:40.097Z,78723.16
2022-12-01T23:41:19.502Z,78728.53
2022-12-01T23:43:52.025Z,78742.97
2022-12-01T23:46:24.134Z,78717.84
2022-12-01T23:48:57.598Z,78727.09
2022-12-01T23:51:32.023Z,78744.88
2022-12-01T23:54:05.527Z,78751.91
2022-12-01T23:56:34.720Z,78745.44
2022-12-01T23:59:04.330Z,78717.84
